sensor_id;sensor_type;location;lat;lon;timestamp;P1;durP1;ratioP1;P2;durP2;ratioP2
12253;SDS011;6189;52.526;13.390;2023-04-25T00:00:50;4.83;;;2.57;;
12253;SDS011;6189;52.526;13.390;2023-04-25T00:03:48;2.43;;;2.00;;
12253;SDS011;6189;52.526;13.390;2023-04-25T00:06:34;3.20;;;2.40;;
12253;SDS011;6189;52.526;13.390;2023-04-25T00:09:21;3.53;;;2.60;;
12253;SDS011;6189;52.526;13.390;2023-04-25T00:12:07;3.40;;;2.50;;
12253;SDS011;6189;52.526;13.390;2023-04-25T00:14:54;5.00;;;2.30;;
12253;SDS011;6189;52.526;13.390;2023-04-25T00:17:42;2.73;;;2.07;;
12253;SDS011;6189;52.526;13.390;2023-04-25T00:20:29;2.97;;;2.20;;
12253;SDS011;6189;52.526;13.390;2023-04-25T00:23:15;2.60;;;1.80;;
12253;SDS011;6189;52.526;13.390;2023-04-25T00:26:02;3.77;;;2.20;;
12253;SDS011;6189;52.526;13.390;2023-04-25T00:28:48;3.17;;;2.10;;
12253;SDS011;6189;52.526;13.390;2023-04-25T00:31:35;4.33;;;2.30;;
12253;SDS011;6189;52.526;13.390;2023-04-25T00:34:21;3.70;;;2.37;;
12253;SDS011;6189;52.526;13.390;2023-04-25T00:37:06;5.03;;;2.50;;
12253;SDS011;6189;52.526;13.390;2023-04-25T00:39:52;4.07;;;2.50;;
12253;SDS011;6189;52.526;13.390;2023-04-25T00:42:39;3.70;;;2.37;;
12253;SDS011;6189;52.526;13.390;2023-04-25T00:45:27;4.00;;;2.10;;
12253;SDS011;6189;52.526;13.390;2023-04-25T00:48:15;4.73;;;2.60;;
12253;SDS011;6189;52.526;13.390;2023-04-25T00:51:02;6.03;;;2.50;;
12253;SDS011;6189;52.526;13.390;2023-04-25T00:53:47;7.40;;;2.13;;
12253;SDS011;6189;52.526;13.390;2023-04-25T00:56:34;5.70;;;2.60;;
12253;SDS011;6189;52.526;13.390;2023-04-25T00:59:20;4.30;;;2.73;;
12253;SDS011;6189;52.526;13.390;2023-04-25T01:02:06;4.60;;;2.40;;
12253;SDS011;6189;52.526;13.390;2023-04-25T01:04:54;5.23;;;2.70;;
12253;SDS011;6189;52.526;13.390;2023-04-25T01:07:40;4.00;;;2.40;;
12253;SDS011;6189;52.526;13.390;2023-04-25T01:10:26;5.00;;;2.90;;
12253;SDS011;6189;52.526;13.390;2023-04-25T01:13:12;3.83;;;2.60;;
12253;SDS011;6189;52.526;13.390;2023-04-25T01:15:57;5.43;;;2.60;;
12253;SDS011;6189;52.526;13.390;2023-04-25T01:18:43;4.60;;;2.67;;
12253;SDS011;6189;52.526;13.390;2023-04-25T01:21:31;3.63;;;2.50;;
12253;SDS011;6189;52.526;13.390;2023-04-25T01:24:17;4.60;;;2.50;;
12253;SDS011;6189;52.526;13.390;2023-04-25T01:27:03;4.17;;;2.53;;
12253;SDS011;6189;52.526;13.390;2023-04-25T01:29:50;4.00;;;2.63;;
12253;SDS011;6189;52.526;13.390;2023-04-25T01:32:36;4.63;;;2.60;;
12253;SDS011;6189;52.526;13.390;2023-04-25T01:35:23;5.20;;;2.93;;
12253;SDS011;6189;52.526;13.390;2023-04-25T01:38:11;4.90;;;2.77;;
12253;SDS011;6189;52.526;13.390;2023-04-25T01:40:57;5.77;;;2.93;;
12253;SDS011;6189;52.526;13.390;2023-04-25T01:43:43;6.23;;;3.07;;
12253;SDS011;6189;52.526;13.390;2023-04-25T01:46:30;3.80;;;2.80;;
12253;SDS011;6189;52.526;13.390;2023-04-25T01:49:16;5.07;;;2.90;;
12253;SDS011;6189;52.526;13.390;2023-04-25T01:52:02;6.40;;;3.27;;
12253;SDS011;6189;52.526;13.390;2023-04-25T01:54:52;5.03;;;2.83;;
12253;SDS011;6189;52.526;13.390;2023-04-25T01:57:39;6.70;;;3.10;;
12253;SDS011;6189;52.526;13.390;2023-04-25T02:00:24;4.47;;;2.77;;
12253;SDS011;6189;52.526;13.390;2023-04-25T02:03:10;6.20;;;3.23;;
12253;SDS011;6189;52.526;13.390;2023-04-25T02:05:56;5.07;;;3.00;;
12253;SDS011;6189;52.526;13.390;2023-04-25T02:08:41;4.60;;;3.10;;
12253;SDS011;6189;52.526;13.390;2023-04-25T02:11:29;4.83;;;2.93;;
12253;SDS011;6189;52.526;13.390;2023-04-25T02:14:16;5.13;;;3.07;;
12253;SDS011;6189;52.526;13.390;2023-04-25T02:17:02;5.90;;;3.23;;
12253;SDS011;6189;52.526;13.390;2023-04-25T02:19:47;6.77;;;3.60;;
12253;SDS011;6189;52.526;13.390;2023-04-25T02:22:34;4.13;;;2.80;;
12253;SDS011;6189;52.526;13.390;2023-04-25T02:25:20;5.73;;;3.30;;
12253;SDS011;6189;52.526;13.390;2023-04-25T02:28:07;3.87;;;2.77;;
12253;SDS011;6189;52.526;13.390;2023-04-25T02:30:54;4.80;;;3.30;;
12253;SDS011;6189;52.526;13.390;2023-04-25T02:33:42;6.70;;;3.50;;
12253;SDS011;6189;52.526;13.390;2023-04-25T02:36:28;7.03;;;3.23;;
12253;SDS011;6189;52.526;13.390;2023-04-25T02:39:17;5.07;;;3.27;;
12253;SDS011;6189;52.526;13.390;2023-04-25T02:42:08;6.20;;;3.20;;
12253;SDS011;6189;52.526;13.390;2023-04-25T02:44:55;6.50;;;3.40;;
12253;SDS011;6189;52.526;13.390;2023-04-25T02:47:41;5.80;;;3.60;;
12253;SDS011;6189;52.526;13.390;2023-04-25T02:50:27;6.37;;;3.80;;
12253;SDS011;6189;52.526;13.390;2023-04-25T02:53:13;5.10;;;3.37;;
12253;SDS011;6189;52.526;13.390;2023-04-25T02:55:58;6.53;;;3.60;;
12253;SDS011;6189;52.526;13.390;2023-04-25T02:58:44;6.53;;;3.80;;
12253;SDS011;6189;52.526;13.390;2023-04-25T03:01:31;7.37;;;3.47;;
12253;SDS011;6189;52.526;13.390;2023-04-25T03:04:17;7.03;;;3.67;;
12253;SDS011;6189;52.526;13.390;2023-04-25T03:07:04;6.63;;;3.47;;
12253;SDS011;6189;52.526;13.390;2023-04-25T03:09:50;8.47;;;4.47;;
12253;SDS011;6189;52.526;13.390;2023-04-25T03:12:35;5.70;;;3.40;;
12253;SDS011;6189;52.526;13.390;2023-04-25T03:15:21;5.43;;;3.17;;
12253;SDS011;6189;52.526;13.390;2023-04-25T03:18:09;6.03;;;3.67;;
12253;SDS011;6189;52.526;13.390;2023-04-25T03:20:54;7.20;;;3.47;;
12253;SDS011;6189;52.526;13.390;2023-04-25T03:23:40;6.93;;;3.50;;
12253;SDS011;6189;52.526;13.390;2023-04-25T03:26:27;6.00;;;3.50;;
12253;SDS011;6189;52.526;13.390;2023-04-25T03:29:13;6.80;;;3.57;;
12253;SDS011;6189;52.526;13.390;2023-04-25T03:31:58;5.67;;;3.80;;
12253;SDS011;6189;52.526;13.390;2023-04-25T03:34:46;6.90;;;3.67;;
12253;SDS011;6189;52.526;13.390;2023-04-25T03:37:31;4.97;;;3.70;;
12253;SDS011;6189;52.526;13.390;2023-04-25T03:40:17;4.47;;;3.70;;
12253;SDS011;6189;52.526;13.390;2023-04-25T03:46:03;6.70;;;4.10;;
12253;SDS011;6189;52.526;13.390;2023-04-25T03:48:49;5.10;;;3.90;;
12253;SDS011;6189;52.526;13.390;2023-04-25T03:51:36;6.43;;;4.40;;
12253;SDS011;6189;52.526;13.390;2023-04-25T03:54:22;4.97;;;3.77;;
12253;SDS011;6189;52.526;13.390;2023-04-25T03:57:07;5.90;;;3.53;;
12253;SDS011;6189;52.526;13.390;2023-04-25T03:59:54;8.60;;;3.67;;
12253;SDS011;6189;52.526;13.390;2023-04-25T04:02:39;5.87;;;3.30;;
12253;SDS011;6189;52.526;13.390;2023-04-25T04:05:25;5.70;;;3.77;;
12253;SDS011;6189;52.526;13.390;2023-04-25T04:08:12;5.03;;;3.80;;
12253;SDS011;6189;52.526;13.390;2023-04-25T04:11:20;6.77;;;4.00;;
12253;SDS011;6189;52.526;13.390;2023-04-25T04:14:06;6.30;;;3.50;;
12253;SDS011;6189;52.526;13.390;2023-04-25T04:16:52;6.17;;;3.60;;
12253;SDS011;6189;52.526;13.390;2023-04-25T04:19:37;7.30;;;4.00;;
12253;SDS011;6189;52.526;13.390;2023-04-25T04:22:23;6.40;;;3.80;;
12253;SDS011;6189;52.526;13.390;2023-04-25T04:25:11;6.47;;;3.53;;
12253;SDS011;6189;52.526;13.390;2023-04-25T04:27:56;7.57;;;3.90;;
12253;SDS011;6189;52.526;13.390;2023-04-25T04:30:42;8.80;;;4.13;;
12253;SDS011;6189;52.526;13.390;2023-04-25T04:33:30;4.97;;;3.60;;
12253;SDS011;6189;52.526;13.390;2023-04-25T04:36:16;5.90;;;3.63;;
12253;SDS011;6189;52.526;13.390;2023-04-25T04:39:05;7.33;;;3.80;;
12253;SDS011;6189;52.526;13.390;2023-04-25T04:41:54;8.07;;;3.73;;
12253;SDS011;6189;52.526;13.390;2023-04-25T04:44:40;5.17;;;3.33;;
12253;SDS011;6189;52.526;13.390;2023-04-25T04:47:28;5.97;;;3.80;;
12253;SDS011;6189;52.526;13.390;2023-04-25T04:50:15;7.47;;;3.80;;
12253;SDS011;6189;52.526;13.390;2023-04-25T04:53:01;6.50;;;3.50;;
12253;SDS011;6189;52.526;13.390;2023-04-25T04:55:47;7.10;;;3.73;;
12253;SDS011;6189;52.526;13.390;2023-04-25T04:58:35;8.30;;;3.93;;
12253;SDS011;6189;52.526;13.390;2023-04-25T05:01:21;6.50;;;4.07;;
12253;SDS011;6189;52.526;13.390;2023-04-25T05:04:07;5.60;;;3.70;;
12253;SDS011;6189;52.526;13.390;2023-04-25T05:06:52;5.37;;;3.80;;
12253;SDS011;6189;52.526;13.390;2023-04-25T05:09:38;5.47;;;3.33;;
12253;SDS011;6189;52.526;13.390;2023-04-25T05:12:26;6.50;;;3.63;;
12253;SDS011;6189;52.526;13.390;2023-04-25T05:15:13;8.53;;;4.13;;
12253;SDS011;6189;52.526;13.390;2023-04-25T05:18:08;6.63;;;3.50;;
12253;SDS011;6189;52.526;13.390;2023-04-25T05:20:54;5.67;;;3.77;;
12253;SDS011;6189;52.526;13.390;2023-04-25T05:23:40;6.03;;;3.90;;
12253;SDS011;6189;52.526;13.390;2023-04-25T05:26:26;6.40;;;4.10;;
12253;SDS011;6189;52.526;13.390;2023-04-25T05:29:14;5.37;;;3.20;;
12253;SDS011;6189;52.526;13.390;2023-04-25T05:32:02;5.63;;;3.40;;
12253;SDS011;6189;52.526;13.390;2023-04-25T05:34:47;5.77;;;3.70;;
12253;SDS011;6189;52.526;13.390;2023-04-25T05:37:33;6.33;;;3.67;;
12253;SDS011;6189;52.526;13.390;2023-04-25T05:40:19;6.13;;;3.83;;
12253;SDS011;6189;52.526;13.390;2023-04-25T05:43:04;6.10;;;4.00;;
12253;SDS011;6189;52.526;13.390;2023-04-25T05:45:50;5.60;;;3.00;;
12253;SDS011;6189;52.526;13.390;2023-04-25T05:51:54;4.47;;;3.70;;
12253;SDS011;6189;52.526;13.390;2023-04-25T05:54:39;4.90;;;3.73;;
12253;SDS011;6189;52.526;13.390;2023-04-25T05:57:25;8.13;;;3.97;;
12253;SDS011;6189;52.526;13.390;2023-04-25T06:00:12;9.53;;;5.00;;
12253;SDS011;6189;52.526;13.390;2023-04-25T06:02:59;7.60;;;4.50;;
12253;SDS011;6189;52.526;13.390;2023-04-25T06:05:47;9.10;;;4.57;;
12253;SDS011;6189;52.526;13.390;2023-04-25T06:08:32;7.57;;;4.40;;
12253;SDS011;6189;52.526;13.390;2023-04-25T06:11:18;7.27;;;3.83;;
12253;SDS011;6189;52.526;13.390;2023-04-25T06:14:03;7.63;;;4.00;;
12253;SDS011;6189;52.526;13.390;2023-04-25T06:16:49;9.30;;;4.57;;
12253;SDS011;6189;52.526;13.390;2023-04-25T06:19:35;7.20;;;4.53;;
12253;SDS011;6189;52.526;13.390;2023-04-25T06:22:22;8.90;;;4.40;;
12253;SDS011;6189;52.526;13.390;2023-04-25T06:25:08;6.83;;;4.53;;
12253;SDS011;6189;52.526;13.390;2023-04-25T06:27:54;9.27;;;4.43;;
12253;SDS011;6189;52.526;13.390;2023-04-25T06:30:41;7.37;;;4.87;;
12253;SDS011;6189;52.526;13.390;2023-04-25T06:33:27;8.27;;;5.40;;
12253;SDS011;6189;52.526;13.390;2023-04-25T06:36:15;7.67;;;4.80;;
12253;SDS011;6189;52.526;13.390;2023-04-25T06:39:04;9.00;;;5.00;;
12253;SDS011;6189;52.526;13.390;2023-04-25T06:41:50;9.50;;;4.63;;
12253;SDS011;6189;52.526;13.390;2023-04-25T06:44:38;9.83;;;5.13;;
12253;SDS011;6189;52.526;13.390;2023-04-25T06:47:24;9.20;;;5.10;;
12253;SDS011;6189;52.526;13.390;2023-04-25T06:50:11;10.53;;;5.07;;
12253;SDS011;6189;52.526;13.390;2023-04-25T06:52:57;7.97;;;5.13;;
12253;SDS011;6189;52.526;13.390;2023-04-25T06:55:47;7.53;;;4.80;;
12253;SDS011;6189;52.526;13.390;2023-04-25T06:58:35;8.20;;;4.90;;
12253;SDS011;6189;52.526;13.390;2023-04-25T07:01:21;6.60;;;4.90;;
12253;SDS011;6189;52.526;13.390;2023-04-25T07:04:07;10.47;;;5.83;;
12253;SDS011;6189;52.526;13.390;2023-04-25T07:06:52;9.73;;;4.73;;
12253;SDS011;6189;52.526;13.390;2023-04-25T07:09:38;8.07;;;5.10;;
12253;SDS011;6189;52.526;13.390;2023-04-25T07:12:25;10.03;;;5.67;;
12253;SDS011;6189;52.526;13.390;2023-04-25T07:15:11;9.20;;;5.17;;
12253;SDS011;6189;52.526;13.390;2023-04-25T07:17:57;11.63;;;5.93;;
12253;SDS011;6189;52.526;13.390;2023-04-25T07:20:43;10.60;;;4.53;;
12253;SDS011;6189;52.526;13.390;2023-04-25T07:23:28;6.83;;;4.57;;
12253;SDS011;6189;52.526;13.390;2023-04-25T07:26:14;8.83;;;4.73;;
12253;SDS011;6189;52.526;13.390;2023-04-25T07:29:01;8.90;;;4.47;;
12253;SDS011;6189;52.526;13.390;2023-04-25T07:31:47;8.17;;;4.60;;
12253;SDS011;6189;52.526;13.390;2023-04-25T07:34:33;8.20;;;4.43;;
12253;SDS011;6189;52.526;13.390;2023-04-25T07:37:21;7.87;;;4.30;;
12253;SDS011;6189;52.526;13.390;2023-04-25T07:40:07;11.27;;;4.27;;
12253;SDS011;6189;52.526;13.390;2023-04-25T07:42:54;10.33;;;4.77;;
12253;SDS011;6189;52.526;13.390;2023-04-25T07:45:41;9.90;;;4.30;;
12253;SDS011;6189;52.526;13.390;2023-04-25T07:48:26;11.17;;;4.60;;
12253;SDS011;6189;52.526;13.390;2023-04-25T07:51:12;7.93;;;4.50;;
12253;SDS011;6189;52.526;13.390;2023-04-25T07:54:00;8.97;;;4.00;;
12253;SDS011;6189;52.526;13.390;2023-04-25T07:56:46;10.77;;;4.07;;
12253;SDS011;6189;52.526;13.390;2023-04-25T07:59:32;11.03;;;4.53;;
12253;SDS011;6189;52.526;13.390;2023-04-25T08:02:19;11.60;;;4.57;;
12253;SDS011;6189;52.526;13.390;2023-04-25T08:05:05;12.33;;;4.67;;
12253;SDS011;6189;52.526;13.390;2023-04-25T08:07:55;11.03;;;4.33;;
12253;SDS011;6189;52.526;13.390;2023-04-25T08:10:41;17.47;;;5.10;;
12253;SDS011;6189;52.526;13.390;2023-04-25T08:13:27;10.40;;;4.43;;
12253;SDS011;6189;52.526;13.390;2023-04-25T08:16:13;14.07;;;4.53;;
12253;SDS011;6189;52.526;13.390;2023-04-25T08:19:00;15.50;;;5.20;;
12253;SDS011;6189;52.526;13.390;2023-04-25T08:21:45;16.10;;;5.30;;
12253;SDS011;6189;52.526;13.390;2023-04-25T08:24:31;11.83;;;4.30;;
12253;SDS011;6189;52.526;13.390;2023-04-25T08:27:17;16.87;;;5.00;;
12253;SDS011;6189;52.526;13.390;2023-04-25T08:30:05;15.20;;;5.37;;
12253;SDS011;6189;52.526;13.390;2023-04-25T08:32:52;14.33;;;4.67;;
12253;SDS011;6189;52.526;13.390;2023-04-25T08:35:39;12.43;;;4.60;;
12253;SDS011;6189;52.526;13.390;2023-04-25T08:38:25;12.00;;;4.17;;
12253;SDS011;6189;52.526;13.390;2023-04-25T08:41:11;18.77;;;5.83;;
12253;SDS011;6189;52.526;13.390;2023-04-25T08:43:59;15.70;;;4.97;;
12253;SDS011;6189;52.526;13.390;2023-04-25T08:46:45;12.53;;;4.87;;
12253;SDS011;6189;52.526;13.390;2023-04-25T08:49:34;11.00;;;4.77;;
12253;SDS011;6189;52.526;13.390;2023-04-25T08:52:22;19.03;;;4.83;;
12253;SDS011;6189;52.526;13.390;2023-04-25T08:55:09;11.60;;;4.60;;
12253;SDS011;6189;52.526;13.390;2023-04-25T08:57:56;14.50;;;4.27;;
12253;SDS011;6189;52.526;13.390;2023-04-25T09:00:45;14.83;;;3.50;;
12253;SDS011;6189;52.526;13.390;2023-04-25T09:03:31;9.30;;;3.70;;
12253;SDS011;6189;52.526;13.390;2023-04-25T09:06:17;11.40;;;4.33;;
12253;SDS011;6189;52.526;13.390;2023-04-25T09:09:06;11.47;;;4.17;;
12253;SDS011;6189;52.526;13.390;2023-04-25T09:11:54;14.37;;;3.63;;
12253;SDS011;6189;52.526;13.390;2023-04-25T09:14:40;12.33;;;4.00;;
12253;SDS011;6189;52.526;13.390;2023-04-25T09:17:27;7.17;;;3.73;;
12253;SDS011;6189;52.526;13.390;2023-04-25T09:20:13;10.57;;;4.70;;
12253;SDS011;6189;52.526;13.390;2023-04-25T09:23:03;7.13;;;3.17;;
12253;SDS011;6189;52.526;13.390;2023-04-25T09:25:51;10.17;;;4.17;;
12253;SDS011;6189;52.526;13.390;2023-04-25T09:28:38;12.17;;;4.40;;
12253;SDS011;6189;52.526;13.390;2023-04-25T09:31:23;10.43;;;3.70;;
12253;SDS011;6189;52.526;13.390;2023-04-25T09:34:09;10.77;;;4.03;;
12253;SDS011;6189;52.526;13.390;2023-04-25T09:37:01;15.50;;;4.10;;
12253;SDS011;6189;52.526;13.390;2023-04-25T09:39:47;11.70;;;4.03;;
12253;SDS011;6189;52.526;13.390;2023-04-25T09:42:35;8.27;;;3.47;;
12253;SDS011;6189;52.526;13.390;2023-04-25T09:45:20;9.23;;;3.70;;
12253;SDS011;6189;52.526;13.390;2023-04-25T09:48:06;10.87;;;3.53;;
12253;SDS011;6189;52.526;13.390;2023-04-25T09:53:53;9.50;;;3.10;;
12253;SDS011;6189;52.526;13.390;2023-04-25T09:56:39;10.03;;;3.37;;
12253;SDS011;6189;52.526;13.390;2023-04-25T09:59:26;12.03;;;3.30;;
12253;SDS011;6189;52.526;13.390;2023-04-25T10:02:16;8.60;;;3.00;;
12253;SDS011;6189;52.526;13.390;2023-04-25T10:05:05;12.13;;;3.30;;
12253;SDS011;6189;52.526;13.390;2023-04-25T10:07:52;7.40;;;3.43;;
12253;SDS011;6189;52.526;13.390;2023-04-25T10:10:39;8.43;;;3.13;;
12253;SDS011;6189;52.526;13.390;2023-04-25T10:13:25;10.67;;;3.20;;
12253;SDS011;6189;52.526;13.390;2023-04-25T10:16:14;10.87;;;3.27;;
12253;SDS011;6189;52.526;13.390;2023-04-25T10:19:01;6.63;;;2.97;;
12253;SDS011;6189;52.526;13.390;2023-04-25T10:21:48;7.47;;;3.00;;
12253;SDS011;6189;52.526;13.390;2023-04-25T10:24:37;8.23;;;3.10;;
12253;SDS011;6189;52.526;13.390;2023-04-25T10:27:24;8.00;;;3.70;;
12253;SDS011;6189;52.526;13.390;2023-04-25T10:30:13;9.67;;;3.80;;
12253;SDS011;6189;52.526;13.390;2023-04-25T10:33:01;12.27;;;3.43;;
12253;SDS011;6189;52.526;13.390;2023-04-25T10:35:46;10.00;;;3.03;;
12253;SDS011;6189;52.526;13.390;2023-04-25T10:38:32;12.73;;;3.33;;
12253;SDS011;6189;52.526;13.390;2023-04-25T10:41:18;8.00;;;3.27;;
12253;SDS011;6189;52.526;13.390;2023-04-25T10:44:05;8.77;;;3.33;;
12253;SDS011;6189;52.526;13.390;2023-04-25T10:46:50;10.17;;;3.47;;
12253;SDS011;6189;52.526;13.390;2023-04-25T10:49:38;8.13;;;3.70;;
12253;SDS011;6189;52.526;13.390;2023-04-25T10:52:27;9.00;;;3.73;;
12253;SDS011;6189;52.526;13.390;2023-04-25T10:55:13;6.87;;;2.63;;
12253;SDS011;6189;52.526;13.390;2023-04-25T10:57:59;7.23;;;3.23;;
12253;SDS011;6189;52.526;13.390;2023-04-25T11:00:45;9.93;;;3.63;;
12253;SDS011;6189;52.526;13.390;2023-04-25T11:03:31;8.40;;;3.37;;
12253;SDS011;6189;52.526;13.390;2023-04-25T11:06:20;8.20;;;3.70;;
12253;SDS011;6189;52.526;13.390;2023-04-25T11:09:09;12.17;;;3.30;;
12253;SDS011;6189;52.526;13.390;2023-04-25T11:11:57;10.87;;;3.20;;
12253;SDS011;6189;52.526;13.390;2023-04-25T11:14:43;6.67;;;3.47;;
12253;SDS011;6189;52.526;13.390;2023-04-25T11:17:29;5.40;;;3.27;;
12253;SDS011;6189;52.526;13.390;2023-04-25T11:20:15;11.93;;;3.43;;
12253;SDS011;6189;52.526;13.390;2023-04-25T11:23:02;9.13;;;3.27;;
12253;SDS011;6189;52.526;13.390;2023-04-25T11:25:49;9.37;;;3.40;;
12253;SDS011;6189;52.526;13.390;2023-04-25T11:28:36;6.67;;;3.10;;
12253;SDS011;6189;52.526;13.390;2023-04-25T11:31:21;5.30;;;3.17;;
12253;SDS011;6189;52.526;13.390;2023-04-25T11:34:09;11.13;;;3.30;;
12253;SDS011;6189;52.526;13.390;2023-04-25T11:36:54;7.57;;;3.50;;
12253;SDS011;6189;52.526;13.390;2023-04-25T11:39:44;18.37;;;5.50;;
12253;SDS011;6189;52.526;13.390;2023-04-25T11:42:30;10.07;;;3.77;;
12253;SDS011;6189;52.526;13.390;2023-04-25T11:45:16;6.87;;;2.80;;
12253;SDS011;6189;52.526;13.390;2023-04-25T11:48:02;6.83;;;2.77;;
12253;SDS011;6189;52.526;13.390;2023-04-25T11:50:48;8.47;;;2.70;;
12253;SDS011;6189;52.526;13.390;2023-04-25T11:53:34;4.87;;;2.33;;
12253;SDS011;6189;52.526;13.390;2023-04-25T11:56:21;6.83;;;2.37;;
12253;SDS011;6189;52.526;13.390;2023-04-25T11:59:07;7.27;;;3.27;;
12253;SDS011;6189;52.526;13.390;2023-04-25T12:01:53;7.80;;;3.13;;
12253;SDS011;6189;52.526;13.390;2023-04-25T12:04:38;8.87;;;3.73;;
12253;SDS011;6189;52.526;13.390;2023-04-25T12:07:28;6.10;;;2.07;;
12253;SDS011;6189;52.526;13.390;2023-04-25T12:10:14;6.80;;;3.10;;
12253;SDS011;6189;52.526;13.390;2023-04-25T12:13:17;7.00;;;2.80;;
12253;SDS011;6189;52.526;13.390;2023-04-25T12:16:06;5.10;;;2.53;;
12253;SDS011;6189;52.526;13.390;2023-04-25T12:18:52;6.77;;;2.70;;
12253;SDS011;6189;52.526;13.390;2023-04-25T12:21:38;7.80;;;2.63;;
12253;SDS011;6189;52.526;13.390;2023-04-25T12:24:25;6.70;;;2.57;;
12253;SDS011;6189;52.526;13.390;2023-04-25T12:27:13;6.47;;;2.47;;
12253;SDS011;6189;52.526;13.390;2023-04-25T12:30:04;6.63;;;2.80;;
12253;SDS011;6189;52.526;13.390;2023-04-25T12:32:50;6.60;;;2.80;;
12253;SDS011;6189;52.526;13.390;2023-04-25T12:35:36;5.27;;;2.77;;
12253;SDS011;6189;52.526;13.390;2023-04-25T12:38:22;7.90;;;2.63;;
12253;SDS011;6189;52.526;13.390;2023-04-25T12:41:08;7.33;;;2.83;;
12253;SDS011;6189;52.526;13.390;2023-04-25T12:43:54;7.80;;;2.63;;
12253;SDS011;6189;52.526;13.390;2023-04-25T12:46:41;7.13;;;2.50;;
12253;SDS011;6189;52.526;13.390;2023-04-25T12:49:27;4.40;;;2.40;;
12253;SDS011;6189;52.526;13.390;2023-04-25T12:52:13;8.80;;;3.63;;
12253;SDS011;6189;52.526;13.390;2023-04-25T12:54:58;8.47;;;2.70;;
12253;SDS011;6189;52.526;13.390;2023-04-25T12:57:44;6.20;;;2.47;;
12253;SDS011;6189;52.526;13.390;2023-04-25T13:00:30;4.10;;;2.33;;
12253;SDS011;6189;52.526;13.390;2023-04-25T13:03:17;6.33;;;3.13;;
12253;SDS011;6189;52.526;13.390;2023-04-25T13:06:03;4.63;;;2.53;;
12253;SDS011;6189;52.526;13.390;2023-04-25T13:08:50;6.90;;;2.77;;
12253;SDS011;6189;52.526;13.390;2023-04-25T13:11:35;7.90;;;2.77;;
12253;SDS011;6189;52.526;13.390;2023-04-25T13:14:21;7.63;;;2.20;;
12253;SDS011;6189;52.526;13.390;2023-04-25T13:17:07;6.20;;;2.40;;
12253;SDS011;6189;52.526;13.390;2023-04-25T13:19:54;5.67;;;2.30;;
12253;SDS011;6189;52.526;13.390;2023-04-25T13:22:39;5.77;;;2.20;;
12253;SDS011;6189;52.526;13.390;2023-04-25T13:25:25;6.87;;;2.40;;
12253;SDS011;6189;52.526;13.390;2023-04-25T13:28:11;5.83;;;2.37;;
12253;SDS011;6189;52.526;13.390;2023-04-25T13:30:57;7.47;;;2.37;;
12253;SDS011;6189;52.526;13.390;2023-04-25T13:33:43;4.77;;;2.53;;
12253;SDS011;6189;52.526;13.390;2023-04-25T13:36:30;6.40;;;2.20;;
12253;SDS011;6189;52.526;13.390;2023-04-25T13:39:15;8.23;;;2.07;;
12253;SDS011;6189;52.526;13.390;2023-04-25T13:42:01;4.37;;;2.50;;
12253;SDS011;6189;52.526;13.390;2023-04-25T13:44:47;8.57;;;2.67;;
12253;SDS011;6189;52.526;13.390;2023-04-25T13:47:33;7.77;;;2.27;;
12253;SDS011;6189;52.526;13.390;2023-04-25T13:50:19;7.03;;;2.87;;
12253;SDS011;6189;52.526;13.390;2023-04-25T13:53:06;3.60;;;2.00;;
12253;SDS011;6189;52.526;13.390;2023-04-25T13:55:52;4.67;;;2.20;;
12253;SDS011;6189;52.526;13.390;2023-04-25T13:58:38;6.60;;;2.80;;
12253;SDS011;6189;52.526;13.390;2023-04-25T14:01:24;8.17;;;2.13;;
12253;SDS011;6189;52.526;13.390;2023-04-25T14:04:11;5.83;;;2.40;;
12253;SDS011;6189;52.526;13.390;2023-04-25T14:06:57;5.37;;;2.80;;
12253;SDS011;6189;52.526;13.390;2023-04-25T14:09:44;5.33;;;2.07;;
12253;SDS011;6189;52.526;13.390;2023-04-25T14:12:30;8.30;;;2.50;;
12253;SDS011;6189;52.526;13.390;2023-04-25T14:15:16;6.03;;;2.53;;
12253;SDS011;6189;52.526;13.390;2023-04-25T14:18:01;6.77;;;2.60;;
12253;SDS011;6189;52.526;13.390;2023-04-25T14:20:47;5.57;;;2.10;;
12253;SDS011;6189;52.526;13.390;2023-04-25T14:23:33;3.03;;;1.83;;
12253;SDS011;6189;52.526;13.390;2023-04-25T14:26:20;5.60;;;2.40;;
12253;SDS011;6189;52.526;13.390;2023-04-25T14:29:06;6.33;;;2.17;;
12253;SDS011;6189;52.526;13.390;2023-04-25T14:31:52;6.57;;;2.20;;
12253;SDS011;6189;52.526;13.390;2023-04-25T14:34:38;4.57;;;2.00;;
12253;SDS011;6189;52.526;13.390;2023-04-25T14:37:23;4.97;;;2.27;;
12253;SDS011;6189;52.526;13.390;2023-04-25T14:40:09;5.57;;;2.20;;
12253;SDS011;6189;52.526;13.390;2023-04-25T14:42:58;4.93;;;2.43;;
12253;SDS011;6189;52.526;13.390;2023-04-25T14:45:43;4.83;;;2.53;;
12253;SDS011;6189;52.526;13.390;2023-04-25T14:48:30;4.90;;;2.23;;
12253;SDS011;6189;52.526;13.390;2023-04-25T14:51:15;3.47;;;2.17;;
12253;SDS011;6189;52.526;13.390;2023-04-25T14:54:01;5.60;;;2.70;;
12253;SDS011;6189;52.526;13.390;2023-04-25T14:56:47;6.40;;;2.73;;
12253;SDS011;6189;52.526;13.390;2023-04-25T14:59:34;4.40;;;2.20;;
12253;SDS011;6189;52.526;13.390;2023-04-25T15:02:19;4.30;;;2.50;;
12253;SDS011;6189;52.526;13.390;2023-04-25T15:05:05;4.13;;;2.20;;
12253;SDS011;6189;52.526;13.390;2023-04-25T15:07:52;4.27;;;1.80;;
12253;SDS011;6189;52.526;13.390;2023-04-25T15:10:38;5.83;;;2.00;;
12253;SDS011;6189;52.526;13.390;2023-04-25T15:13:24;8.97;;;2.30;;
12253;SDS011;6189;52.526;13.390;2023-04-25T15:16:11;5.40;;;1.73;;
12253;SDS011;6189;52.526;13.390;2023-04-25T15:18:57;5.00;;;2.30;;
12253;SDS011;6189;52.526;13.390;2023-04-25T15:21:42;6.10;;;2.47;;
12253;SDS011;6189;52.526;13.390;2023-04-25T15:24:28;5.23;;;1.80;;
12253;SDS011;6189;52.526;13.390;2023-04-25T15:27:14;5.03;;;2.07;;
12253;SDS011;6189;52.526;13.390;2023-04-25T15:30:00;3.43;;;1.67;;
12253;SDS011;6189;52.526;13.390;2023-04-25T15:32:48;5.13;;;2.03;;
12253;SDS011;6189;52.526;13.390;2023-04-25T15:35:33;3.40;;;1.83;;
12253;SDS011;6189;52.526;13.390;2023-04-25T15:38:19;4.70;;;2.00;;
12253;SDS011;6189;52.526;13.390;2023-04-25T15:41:04;5.83;;;1.97;;
12253;SDS011;6189;52.526;13.390;2023-04-25T15:43:50;3.30;;;1.80;;
12253;SDS011;6189;52.526;13.390;2023-04-25T15:46:37;4.43;;;1.83;;
12253;SDS011;6189;52.526;13.390;2023-04-25T15:49:24;3.67;;;1.90;;
12253;SDS011;6189;52.526;13.390;2023-04-25T15:52:11;2.73;;;1.70;;
12253;SDS011;6189;52.526;13.390;2023-04-25T15:54:57;5.97;;;2.10;;
12253;SDS011;6189;52.526;13.390;2023-04-25T15:57:42;4.20;;;1.87;;
12253;SDS011;6189;52.526;13.390;2023-04-25T16:00:28;4.20;;;2.07;;
12253;SDS011;6189;52.526;13.390;2023-04-25T16:03:14;5.47;;;2.23;;
12253;SDS011;6189;52.526;13.390;2023-04-25T16:06:01;5.90;;;2.20;;
12253;SDS011;6189;52.526;13.390;2023-04-25T16:08:47;4.80;;;2.07;;
12253;SDS011;6189;52.526;13.390;2023-04-25T16:11:32;2.73;;;1.60;;
12253;SDS011;6189;52.526;13.390;2023-04-25T16:14:18;2.33;;;1.47;;
12253;SDS011;6189;52.526;13.390;2023-04-25T16:17:04;2.77;;;1.90;;
12253;SDS011;6189;52.526;13.390;2023-04-25T16:19:50;5.67;;;2.10;;
12253;SDS011;6189;52.526;13.390;2023-04-25T16:22:37;6.17;;;2.20;;
12253;SDS011;6189;52.526;13.390;2023-04-25T16:25:24;7.10;;;1.90;;
12253;SDS011;6189;52.526;13.390;2023-04-25T16:28:10;4.67;;;1.50;;
12253;SDS011;6189;52.526;13.390;2023-04-25T16:30:55;3.20;;;1.43;;
12253;SDS011;6189;52.526;13.390;2023-04-25T16:33:41;6.27;;;1.87;;
12253;SDS011;6189;52.526;13.390;2023-04-25T16:36:27;6.13;;;1.90;;
12253;SDS011;6189;52.526;13.390;2023-04-25T16:39:16;5.47;;;1.67;;
12253;SDS011;6189;52.526;13.390;2023-04-25T16:42:01;3.03;;;1.50;;
12253;SDS011;6189;52.526;13.390;2023-04-25T16:44:47;3.87;;;1.90;;
12253;SDS011;6189;52.526;13.390;2023-04-25T16:47:33;4.03;;;2.30;;
12253;SDS011;6189;52.526;13.390;2023-04-25T16:50:19;5.10;;;2.07;;